Time;durP1;ratioP1;P1;durP2;ratioP2;P2;SDS_P1;SDS_P2;PMS_P1;PMS_P2;Temp;Humidity;BMP_temperature;BMP_pressure;BME280_temperature;BME280_humidity;BME280_pressure;Samples;Min_cycle;Max_cycle;Signal;HPM_P1;HPM_P2
2021/12/03 00:00:13;;;;;;;2.42;1.17;;;23.10;40.00;;;;;;5031990;28;20041;-45
2021/12/03 00:02:39;;;;;;;4.28;1.58;;;23.10;40.00;;;;;;5024169;28;20037;-45
2021/12/03 00:05:05;;;;;;;3.25;1.40;;;23.10;40.00;;;;;;5041196;28;20040;-45
2021/12/03 00:07:32;;;;;;;2.55;1.30;;;23.10;40.00;;;;;;5013359;28;20037;-45
2021/12/03 00:09:58;;;;;;;2.67;1.38;;;23.00;39.90;;;;;;5026832;28;20029;-45
2021/12/03 00:12:24;;;;;;;3.10;1.67;;;23.00;39.90;;;;;;5018861;28;20453;-45
2021/12/03 00:14:50;;;;;;;3.50;1.75;;;23.10;40.00;;;;;;5006300;28;20363;-45
2021/12/03 00:17:15;;;;;;;2.97;1.55;;;23.10;40.00;;;;;;5005600;28;20026;-45
2021/12/03 00:19:42;;;;;;;2.90;1.52;;;23.00;39.90;;;;;;5006191;28;20426;-45
2021/12/03 00:22:07;;;;;;;2.92;1.30;;;23.00;39.90;;;;;;5006745;28;20386;-44
2021/12/03 00:24:33;;;;;;;3.70;1.50;;;23.00;39.90;;;;;;5006853;28;20033;-45
2021/12/03 00:27:00;;;;;;;3.22;1.30;;;23.00;39.90;;;;;;5032827;28;20188;-45
2021/12/03 00:29:25;;;;;;;4.22;1.30;;;23.00;39.90;;;;;;5038795;28;20028;-45
2021/12/03 00:31:51;;;;;;;2.63;1.30;;;22.90;39.90;;;;;;5027447;28;20085;-45
2021/12/03 00:34:17;;;;;;;2.65;1.25;;;23.00;39.90;;;;;;5034115;28;20032;-45
2021/12/03 00:36:42;;;;;;;3.92;1.55;;;22.90;39.90;;;;;;5029909;28;20056;-45
2021/12/03 00:39:08;;;;;;;2.78;1.27;;;22.90;39.90;;;;;;5027512;28;20033;-45
2021/12/03 00:41:41;;;;;;;3.20;1.45;;;22.90;39.90;;;;;;5026130;28;20785;-45
2021/12/03 00:44:06;;;;;;;;;;;22.90;39.90;;;;;;5030124;28;20486;-45
2021/12/03 00:46:32;;;;;;;2.45;1.25;;;22.90;40.00;;;;;;5026273;28;20492;-44
2021/12/03 00:48:58;;;;;;;3.50;1.55;;;22.90;39.90;;;;;;5026034;28;20025;-45
2021/12/03 00:51:25;;;;;;;2.85;1.10;;;22.80;39.90;;;;;;5036865;28;20108;-45
2021/12/03 00:53:51;;;;;;;2.75;1.20;;;22.80;39.90;;;;;;5024083;28;20049;-44
2021/12/03 00:56:17;;;;;;;3.45;1.10;;;22.80;39.90;;;;;;5017278;28;20418;-45
2021/12/03 00:58:43;;;;;;;4.05;1.42;;;22.80;39.90;;;;;;5006805;28;20084;-45
2021/12/03 01:01:09;;;;;;;3.25;1.38;;;22.80;39.90;;;;;;5006527;28;20030;-45
2021/12/03 01:03:36;;;;;;;2.65;1.15;;;22.80;39.90;;;;;;5006413;28;20036;-45
2021/12/03 01:06:02;;;;;;;3.17;1.17;;;22.80;39.90;;;;;;5006235;28;20548;-45
2021/12/03 01:08:28;;;;;;;3.15;1.05;;;22.80;39.90;;;;;;5005749;28;20040;-45
2021/12/03 01:10:54;;;;;;;2.58;1.35;;;22.80;39.90;;;;;;5023263;28;20279;-45
2021/12/03 01:13:20;;;;;;;1.83;0.90;;;22.70;39.90;;;;;;5029645;28;20033;-45
2021/12/03 01:15:46;;;;;;;3.13;1.38;;;22.70;39.90;;;;;;5027142;28;20036;-45
2021/12/03 01:18:13;;;;;;;3.65;1.63;;;22.70;39.90;;;;;;5028474;28;20466;-45
2021/12/03 01:20:41;;;;;;;4.03;1.35;;;22.70;39.90;;;;;;5033038;28;20030;-45
2021/12/03 01:23:09;;;;;;;2.58;1.10;;;22.70;39.90;;;;;;5025762;28;20076;-45
2021/12/03 01:25:35;;;;;;;2.88;1.20;;;22.70;39.90;;;;;;5032510;28;20036;-45
2021/12/03 01:28:01;;;;;;;2.97;1.27;;;22.70;39.90;;;;;;5025084;28;20029;-45
2021/12/03 01:30:28;;;;;;;2.50;1.13;;;22.70;39.90;;;;;;5029675;28;20031;-45
2021/12/03 01:32:55;;;;;;;2.20;1.00;;;22.70;39.90;;;;;;5025544;28;20028;-45
2021/12/03 01:35:21;;;;;;;2.15;0.90;;;22.70;39.90;;;;;;5025488;28;20388;-44
2021/12/03 01:37:47;;;;;;;2.17;1.00;;;22.70;40.00;;;;;;5025017;28;20025;-45
2021/12/03 01:40:18;;;;;;;3.20;1.30;;;22.60;39.90;;;;;;5023615;28;20025;-45
2021/12/03 01:42:45;;;;;;;2.50;1.02;;;22.60;39.90;;;;;;5024296;28;20030;-45
2021/12/03 01:45:14;;;;;;;1.98;0.88;;;22.60;39.90;;;;;;5024914;28;20132;-44
2021/12/03 01:47:42;;;;;;;2.92;1.10;;;22.60;39.90;;;;;;5024569;28;20037;-45
2021/12/03 01:50:09;;;;;;;3.70;1.20;;;22.60;39.90;;;;;;5024615;28;20083;-44
2021/12/03 01:52:35;;;;;;;2.83;1.25;;;22.60;39.90;;;;;;5023932;28;20092;-44
2021/12/03 01:55:02;;;;;;;2.75;1.10;;;22.60;39.90;;;;;;5025160;28;20037;-45
2021/12/03 01:57:28;;;;;;;1.67;0.80;;;22.60;39.90;;;;;;5029187;28;20397;-45
2021/12/03 01:59:55;;;;;;;2.33;1.10;;;22.60;39.90;;;;;;5026685;28;20035;-45
2021/12/03 02:02:21;;;;;;;2.55;1.10;;;22.60;40.00;;;;;;5023555;28;20108;-45
2021/12/03 02:04:47;;;;;;;3.03;1.15;;;22.60;39.90;;;;;;5025399;28;20036;-45
2021/12/03 02:07:13;;;;;;;2.45;0.95;;;22.60;40.00;;;;;;5024904;28;20574;-45
2021/12/03 02:09:39;;;;;;;1.88;0.98;;;22.60;40.00;;;;;;5024065;28;20401;-45
2021/12/03 02:12:05;;;;;;;1.40;0.70;;;22.50;39.90;;;;;;5023639;28;20026;-45
2021/12/03 02:14:31;;;;;;;2.50;1.10;;;22.50;39.90;;;;;;5033884;28;20104;-45
2021/12/03 02:16:57;;;;;;;1.95;0.90;;;22.50;40.60;;;;;;5035208;28;20104;-45
2021/12/03 02:19:22;;;;;;;2.60;1.05;;;22.50;39.90;;;;;;5030129;28;20037;-45
2021/12/03 02:21:48;;;;;;;2.35;1.08;;;22.50;39.90;;;;;;5024831;28;20100;-45
2021/12/03 02:24:14;;;;;;;2.03;1.00;;;22.50;39.90;;;;;;5024501;28;20486;-45
2021/12/03 02:26:42;;;;;;;2.53;1.15;;;22.50;39.90;;;;;;5024537;28;20035;-45
2021/12/03 02:29:08;;;;;;;2.83;1.30;;;22.50;40.00;;;;;;5024893;28;20039;-45
2021/12/03 02:31:34;;;;;;;2.38;1.10;;;22.50;39.90;;;;;;5032212;28;20029;-45
2021/12/03 02:34:00;;;;;;;2.35;0.98;;;22.50;39.90;;;;;;5024969;28;20080;-45
2021/12/03 02:36:26;;;;;;;1.98;0.90;;;22.50;39.90;;;;;;5028991;28;20017;-45
2021/12/03 02:38:52;;;;;;;2.75;1.10;;;22.50;40.00;;;;;;5024008;28;20068;-45
2021/12/03 02:41:18;;;;;;;1.95;0.80;;;22.50;40.00;;;;;;5023568;28;20265;-45
2021/12/03 02:43:44;;;;;;;2.28;1.05;;;22.40;39.80;;;;;;5023748;28;20510;-45
2021/12/03 02:46:11;;;;;;;1.83;0.82;;;22.40;39.90;;;;;;5024395;28;20033;-45
2021/12/03 02:48:37;;;;;;;2.25;0.90;;;22.40;39.90;;;;;;5024245;28;20445;-45
2021/12/03 02:51:04;;;;;;;2.38;0.98;;;22.40;40.00;;;;;;5039211;28;20028;-45
2021/12/03 02:53:29;;;;;;;2.40;0.90;;;22.40;40.60;;;;;;5032938;28;20193;-44
2021/12/03 02:55:55;;;;;;;1.67;0.70;;;22.40;39.90;;;;;;5010919;28;20033;-45
2021/12/03 02:58:21;;;;;;;1.85;0.90;;;22.40;39.90;;;;;;5004706;28;20072;-44
2021/12/03 03:00:49;;;;;;;2.10;0.90;;;22.40;39.90;;;;;;5004283;28;20699;-45
2021/12/03 03:03:15;;;;;;;2.08;0.93;;;22.40;40.00;;;;;;5004563;28;20092;-45
2021/12/03 03:05:40;;;;;;;2.15;0.98;;;22.30;40.20;;;;;;5004836;28;20030;-45
2021/12/03 03:08:07;;;;;;;1.75;0.77;;;22.30;40.20;;;;;;5003773;28;20026;-45
2021/12/03 03:10:39;;;;;;;1.88;0.95;;;22.30;40.30;;;;;;5004887;28;20247;-45
2021/12/03 03:13:05;;;;;;;1.77;0.77;;;22.40;40.20;;;;;;5023295;28;20141;-45
2021/12/03 03:15:31;;;;;;;2.30;1.13;;;22.30;40.30;;;;;;5016324;28;20038;-45
2021/12/03 03:17:57;;;;;;;2.00;0.82;;;22.30;40.30;;;;;;5003729;28;20038;-45
2021/12/03 03:20:22;;;;;;;2.30;1.02;;;22.30;40.30;;;;;;5003918;28;20298;-45
2021/12/03 03:22:50;;;;;;;2.08;0.70;;;22.30;40.30;;;;;;5002381;28;20040;-44
2021/12/03 03:25:18;;;;;;;1.83;1.00;;;22.30;40.40;;;;;;5004423;28;20034;-47
2021/12/03 03:27:44;;;;;;;2.35;0.90;;;22.30;40.40;;;;;;5004437;28;20057;-45
2021/12/03 03:30:13;;;;;;;2.30;1.10;;;22.30;40.40;;;;;;5008648;28;20044;-45
2021/12/03 03:32:39;;;;;;;1.50;0.73;;;22.30;40.40;;;;;;5024429;28;20056;-44
2021/12/03 03:35:06;;;;;;;2.33;0.85;;;22.30;40.30;;;;;;5026595;28;20029;-45
2021/12/03 03:37:32;;;;;;;1.50;0.68;;;22.30;40.20;;;;;;5027736;28;20691;-45
2021/12/03 03:39:58;;;;;;;1.90;0.70;;;22.30;40.10;;;;;;5027233;28;20494;-45
2021/12/03 03:42:23;;;;;;;1.65;0.85;;;22.30;40.10;;;;;;5026526;28;20034;-47
2021/12/03 03:44:49;;;;;;;2.22;0.90;;;22.30;40.00;;;;;;5027112;28;20116;-45
2021/12/03 03:47:15;;;;;;;2.85;1.00;;;22.30;40.10;;;;;;5026935;28;20036;-45
2021/12/03 03:49:41;;;;;;;1.70;0.70;;;22.30;40.10;;;;;;5030731;28;20159;-45
2021/12/03 03:52:07;;;;;;;2.15;0.88;;;22.30;40.00;;;;;;5045807;28;20346;-45
2021/12/03 03:54:33;;;;;;;2.05;0.90;;;22.30;40.10;;;;;;5035408;28;20037;-45
2021/12/03 03:57:00;;;;;;;1.83;0.80;;;22.30;40.00;;;;;;5026756;28;20052;-45
2021/12/03 03:59:26;;;;;;;2.22;0.88;;;22.30;40.00;;;;;;5026690;28;20108;-45
2021/12/03 04:01:52;;;;;;;2.45;1.08;;;22.30;40.00;;;;;;5027202;28;20117;-45
2021/12/03 04:04:18;;;;;;;1.95;1.02;;;22.30;40.00;;;;;;5025765;28;20455;-45
2021/12/03 04:06:44;;;;;;;2.10;0.90;;;22.30;40.00;;;;;;5026970;28;20124;-45
2021/12/03 04:09:11;;;;;;;2.17;1.00;;;22.20;39.90;;;;;;5026819;28;20044;-45
2021/12/03 04:11:37;;;;;;;1.55;0.88;;;22.30;40.00;;;;;;5027366;28;20044;-45
2021/12/03 04:14:03;;;;;;;2.10;0.95;;;22.20;39.90;;;;;;5027382;28;20032;-45
2021/12/03 04:16:30;;;;;;;2.88;1.05;;;22.30;40.00;;;;;;5041641;28;20025;-45
2021/12/03 04:18:57;;;;;;;2.30;0.80;;;22.30;40.00;;;;;;5025763;28;20123;-45
2021/12/03 04:21:23;;;;;;;2.03;0.80;;;22.20;39.90;;;;;;5025058;28;20021;-45
2021/12/03 04:23:50;;;;;;;2.25;0.90;;;22.20;39.90;;;;;;5026092;28;20036;-45
2021/12/03 04:26:15;;;;;;;3.08;1.20;;;22.20;39.90;;;;;;5034003;28;20022;-45
2021/12/03 04:28:41;;;;;;;2.17;0.85;;;22.20;39.90;;;;;;5036647;28;20124;-45
2021/12/03 04:31:07;;;;;;;1.25;0.50;;;22.20;39.90;;;;;;5027879;28;20025;-45
2021/12/03 04:33:33;;;;;;;1.65;0.70;;;22.20;39.90;;;;;;5025537;28;20118;-45
2021/12/03 04:35:59;;;;;;;1.45;0.80;;;22.20;39.90;;;;;;5035577;28;20039;-45
2021/12/03 04:38:25;;;;;;;1.95;0.90;;;22.20;39.90;;;;;;5034028;28;20021;-45
2021/12/03 04:40:51;;;;;;;2.58;0.85;;;22.20;40.60;;;;;;5032442;28;20022;-45
2021/12/03 04:43:17;;;;;;;0.98;0.50;;;22.20;39.90;;;;;;5034689;28;20545;-45
2021/12/03 04:45:43;;;;;;;2.10;0.75;;;22.20;39.90;;;;;;5037480;28;20036;-45
2021/12/03 04:48:09;;;;;;;1.52;0.63;;;22.20;39.90;;;;;;5025702;28;20611;-45
2021/12/03 04:50:38;;;;;;;2.55;0.90;;;22.20;39.90;;;;;;5032079;28;20045;-45
2021/12/03 04:53:05;;;;;;;2.55;1.25;;;22.20;39.90;;;;;;5030009;28;20663;-45
2021/12/03 04:55:32;;;;;;;1.70;0.73;;;22.20;39.90;;;;;;5026544;28;20034;-45
2021/12/03 04:57:58;;;;;;;2.28;0.80;;;22.20;39.90;;;;;;5024061;28;20541;-45
2021/12/03 05:00:34;;;;;;;2.67;0.93;;;22.20;39.90;;;;;;5025686;28;20116;-45
2021/12/03 05:03:00;;;;;;;2.08;0.90;;;22.20;39.90;;;;;;5007916;28;20563;-45
2021/12/03 05:05:31;;;;;;;2.42;0.95;;;22.20;39.90;;;;;;5018666;28;20061;-45
2021/12/03 05:07:57;;;;;;;1.98;0.80;;;22.10;39.90;;;;;;5006140;28;20093;-45
2021/12/03 05:10:28;;;;;;;2.67;1.10;;;22.20;40.00;;;;;;5006606;28;20666;-45
2021/12/03 05:12:58;;;;;;;1.88;0.80;;;22.20;40.10;;;;;;5025905;28;20037;-45
2021/12/03 05:15:24;;;;;;;2.22;0.80;;;22.10;40.10;;;;;;5025253;28;20116;-45
2021/12/03 05:17:50;;;;;;;1.90;0.90;;;22.10;40.10;;;;;;5026117;28;20465;-45
2021/12/03 05:20:15;;;;;;;1.73;0.70;;;22.10;40.20;;;;;;5020093;28;20223;-46
2021/12/03 05:22:41;;;;;;;1.77;0.88;;;22.10;40.30;;;;;;5005168;28;20489;-45
2021/12/03 05:25:07;;;;;;;1.45;0.63;;;22.10;40.30;;;;;;5004189;28;20026;-44
2021/12/03 05:27:33;;;;;;;1.85;0.70;;;22.20;40.40;;;;;;5020758;28;20041;-45
2021/12/03 05:29:59;;;;;;;1.35;0.70;;;22.20;40.50;;;;;;5033311;28;20108;-45
2021/12/03 05:32:25;;;;;;;3.97;1.30;;;22.20;40.50;;;;;;5023874;28;20485;-45
2021/12/03 05:34:50;;;;;;;1.90;0.82;;;22.20;40.50;;;;;;5025544;28;20044;-45
2021/12/03 05:37:16;;;;;;;2.20;0.73;;;22.30;40.60;;;;;;5025497;28;20075;-45
2021/12/03 05:39:42;;;;;;;1.40;0.60;;;22.30;40.50;;;;;;5026006;28;20029;-45
2021/12/03 05:42:08;;;;;;;1.15;0.60;;;22.40;40.50;;;;;;5025473;28;20025;-45
2021/12/03 05:44:34;;;;;;;1.83;0.70;;;22.40;40.40;;;;;;5023669;28;20033;-44
2021/12/03 05:47:00;;;;;;;1.20;0.50;;;22.50;40.50;;;;;;5025151;28;20505;-45
2021/12/03 05:49:27;;;;;;;2.30;0.70;;;22.60;40.30;;;;;;5026263;28;20036;-44
2021/12/03 05:51:53;;;;;;;1.40;0.60;;;22.60;40.20;;;;;;5044417;28;20056;-45
2021/12/03 05:54:20;;;;;;;1.98;0.80;;;22.70;40.20;;;;;;5044281;28;20518;-45
2021/12/03 05:56:46;;;;;;;2.15;0.65;;;22.80;40.00;;;;;;5026808;28;20091;-45
2021/12/03 05:59:12;;;;;;;1.70;0.70;;;22.80;39.90;;;;;;5024459;28;20029;-45
2021/12/03 06:01:38;;;;;;;2.15;0.70;;;22.90;39.90;;;;;;5023777;28;20588;-45
2021/12/03 06:04:04;;;;;;;1.45;0.75;;;22.90;39.80;;;;;;5029129;28;20025;-45
2021/12/03 06:06:30;;;;;;;1.13;0.50;;;23.00;39.70;;;;;;5037364;28;20504;-45
2021/12/03 06:08:58;;;;;;;1.60;0.60;;;23.10;39.70;;;;;;5023587;28;20030;-45
2021/12/03 06:11:24;;;;;;;1.75;0.60;;;23.10;39.60;;;;;;5024718;28;20033;-45
2021/12/03 06:13:50;;;;;;;1.80;0.80;;;23.20;39.50;;;;;;5024217;28;20057;-45
2021/12/03 06:16:15;;;;;;;2.10;0.80;;;23.20;39.40;;;;;;5024464;28;20477;-45
2021/12/03 06:18:41;;;;;;;1.25;0.60;;;23.30;39.40;;;;;;5024738;28;20029;-45
2021/12/03 06:21:09;;;;;;;4.55;1.00;;;23.30;39.30;;;;;;5006293;28;20091;-44
2021/12/03 06:23:35;;;;;;;2.20;0.70;;;23.30;39.20;;;;;;5021863;28;20040;-45
2021/12/03 06:26:01;;;;;;;2.80;0.90;;;23.40;39.20;;;;;;5023988;28;20030;-45
2021/12/03 06:28:29;;;;;;;1.10;0.50;;;23.40;39.10;;;;;;5024483;28;20398;-45
2021/12/03 06:30:57;;;;;;;1.90;0.68;;;23.50;39.10;;;;;;5024787;28;20034;-45
2021/12/03 06:33:22;;;;;;;2.53;0.65;;;23.50;39.10;;;;;;5023940;28;20052;-45
2021/12/03 06:35:49;;;;;;;1.95;0.90;;;23.50;39.00;;;;;;5023557;28;20058;-45
2021/12/03 06:38:16;;;;;;;2.00;0.73;;;23.60;38.90;;;;;;5023259;28;20030;-45
2021/12/03 06:40:43;;;;;;;1.63;0.60;;;23.60;38.80;;;;;;5024404;28;20041;-45
2021/12/03 06:43:09;;;;;;;1.02;0.40;;;23.60;39.40;;;;;;5023444;28;20033;-45
2021/12/03 06:45:36;;;;;;;2.28;0.80;;;23.60;38.70;;;;;;5024416;28;20072;-45
2021/12/03 06:48:02;;;;;;;1.83;0.50;;;23.70;38.80;;;;;;5023703;28;20053;-45
2021/12/03 06:50:29;;;;;;;3.00;0.75;;;23.70;38.70;;;;;;5032791;28;20029;-45
2021/12/03 06:53:02;;;;;;;1.17;0.47;;;23.70;38.60;;;;;;5043051;28;20021;-45
2021/12/03 06:55:29;;;;;;;2.20;0.70;;;23.80;38.50;;;;;;5042085;28;20120;-45
2021/12/03 06:57:55;;;;;;;2.25;0.55;;;23.80;38.50;;;;;;5023081;28;20034;-45
2021/12/03 07:00:22;;;;;;;1.77;0.70;;;23.80;38.40;;;;;;5023179;28;20465;-45
2021/12/03 07:02:48;;;;;;;1.15;0.40;;;23.80;38.40;;;;;;5023282;28;20075;-45
2021/12/03 07:05:14;;;;;;;1.73;0.90;;;23.80;38.40;;;;;;5021762;28;20029;-45
2021/12/03 07:07:41;;;;;;;2.20;0.75;;;23.80;38.60;;;;;;5024108;28;20029;-44
2021/12/03 07:10:08;;;;;;;1.75;0.45;;;23.90;38.70;;;;;;5025500;28;20525;-44
2021/12/03 07:12:33;;;;;;;2.03;0.75;;;23.90;38.60;;;;;;5027111;28;20033;-45
2021/12/03 07:15:00;;;;;;;2.03;0.60;;;23.90;38.70;;;;;;5027466;28;20072;-44
2021/12/03 07:17:30;;;;;;;1.92;0.65;;;23.90;38.50;;;;;;5026281;28;20490;-45
2021/12/03 07:19:57;;;;;;;1.15;0.50;;;23.90;38.50;;;;;;5025970;28;20025;-45
2021/12/03 07:22:24;;;;;;;1.95;0.70;;;23.90;38.50;;;;;;5024688;28;20078;-44
2021/12/03 07:24:50;;;;;;;1.98;0.60;;;24.00;38.40;;;;;;5025301;28;20021;-44
2021/12/03 07:27:16;;;;;;;27.60;1.85;;;24.00;38.20;;;;;;5022791;28;20096;-44
2021/12/03 07:29:47;;;;;;;1.98;0.73;;;24.00;38.20;;;;;;5022058;28;20085;-45
2021/12/03 07:32:16;;;;;;;2.92;0.95;;;24.00;38.20;;;;;;5024840;28;20026;-44
2021/12/03 07:34:42;;;;;;;1.70;0.70;;;24.00;38.20;;;;;;5025619;28;20040;-45
2021/12/03 07:37:09;;;;;;;2.00;0.75;;;24.00;38.20;;;;;;5024305;28;20022;-45
2021/12/03 07:39:35;;;;;;;2.78;0.90;;;24.00;38.10;;;;;;5027635;28;20030;-45
2021/12/03 07:42:00;;;;;;;2.38;0.77;;;24.10;38.20;;;;;;5026028;28;20037;-45
2021/12/03 07:44:26;;;;;;;2.33;0.85;;;24.10;38.20;;;;;;5021986;28;20486;-45
2021/12/03 07:46:52;;;;;;;2.88;1.00;;;24.10;38.20;;;;;;5021255;28;20040;-44
2021/12/03 07:49:19;;;;;;;2.75;0.93;;;24.10;38.60;;;;;;5023459;28;20037;-45
2021/12/03 07:51:45;;;;;;;2.80;1.00;;;24.10;39.00;;;;;;5027994;28;20030;-46
2021/12/03 07:54:11;;;;;;;3.72;1.00;;;24.20;39.20;;;;;;5022182;28;20476;-47
2021/12/03 07:56:36;;;;;;;2.00;0.65;;;24.20;39.30;;;;;;5025613;28;20414;-46
2021/12/03 07:59:04;;;;;;;3.00;0.95;;;24.20;39.10;;;;;;5022838;28;20024;-46
2021/12/03 08:01:30;;;;;;;3.25;0.70;;;24.20;39.10;;;;;;5025312;28;20041;-46
2021/12/03 08:03:56;;;;;;;2.85;0.70;;;24.20;39.00;;;;;;5021376;28;20029;-46
2021/12/03 08:06:22;;;;;;;3.22;0.85;;;24.20;39.00;;;;;;5021040;28;20030;-45
2021/12/03 08:08:48;;;;;;;2.22;0.90;;;24.20;39.30;;;;;;5023730;28;20104;-45
2021/12/03 08:11:14;;;;;;;1.27;0.70;;;24.30;39.00;;;;;;5020419;28;20482;-46
2021/12/03 08:13:39;;;;;;;2.80;0.80;;;24.30;39.20;;;;;;5026242;28;20021;-44
2021/12/03 08:16:05;;;;;;;1.60;0.60;;;24.30;38.80;;;;;;5017414;28;20050;-44
2021/12/03 08:18:32;;;;;;;2.42;0.80;;;24.30;38.80;;;;;;5014053;28;20033;-44
2021/12/03 08:20:59;;;;;;;2.03;0.80;;;24.30;38.80;;;;;;5022461;28;20045;-45
2021/12/03 08:23:25;;;;;;;4.38;0.95;;;24.40;38.70;;;;;;5023207;28;20109;-44
2021/12/03 08:25:51;;;;;;;4.50;1.20;;;24.30;38.70;;;;;;5020080;28;20045;-44
2021/12/03 08:28:17;;;;;;;2.25;1.00;;;24.30;38.60;;;;;;5023032;28;20484;-44
2021/12/03 08:30:42;;;;;;;2.17;0.98;;;24.40;38.60;;;;;;5023476;28;20025;-44
2021/12/03 08:33:08;;;;;;;2.40;1.00;;;24.40;38.50;;;;;;5020308;28;20033;-44
2021/12/03 08:35:34;;;;;;;1.98;0.88;;;24.40;38.50;;;;;;5020984;28;20037;-44
2021/12/03 08:38:00;;;;;;;2.63;1.30;;;24.40;38.60;;;;;;5019834;28;20026;-44
2021/12/03 08:40:26;;;;;;;3.22;0.93;;;24.40;38.40;;;;;;5021710;28;20025;-44
2021/12/03 08:42:52;;;;;;;2.45;1.10;;;24.40;38.40;;;;;;5028509;28;20104;-45
2021/12/03 08:45:20;;;;;;;2.63;1.00;;;24.40;38.30;;;;;;5027159;28;20021;-46
2021/12/03 08:47:54;;;;;;;3.08;1.05;;;24.40;38.40;;;;;;5025683;28;20104;-46
2021/12/03 08:50:33;;;;;;;2.30;0.90;;;24.40;38.60;;;;;;5024819;28;20101;-46
2021/12/03 08:53:16;;;;;;;2.47;1.30;;;24.40;38.30;;;;;;5018552;28;20528;-46
2021/12/03 08:55:43;;;;;;;2.35;1.00;;;24.40;38.10;;;;;;5021798;28;20529;-46
2021/12/03 08:58:10;;;;;;;2.70;1.08;;;24.40;38.30;;;;;;5022526;28;20024;-46
2021/12/03 09:00:37;;;;;;;4.33;0.90;;;24.40;38.10;;;;;;4979371;28;1181361;-46
2021/12/03 09:03:05;;;;;;;2.47;1.08;;;24.40;38.00;;;;;;5024481;28;20026;-46
2021/12/03 09:05:32;;;;;;;2.28;0.88;;;24.40;38.60;;;;;;5022425;28;20034;-45
2021/12/03 09:07:58;;;;;;;3.05;1.27;;;24.40;38.10;;;;;;5022818;28;20130;-44
2021/12/03 09:10:25;;;;;;;2.45;1.35;;;24.40;38.60;;;;;;5024356;28;20248;-44
2021/12/03 09:12:52;;;;;;;2.05;0.90;;;24.40;38.60;;;;;;5024152;28;20037;-44
2021/12/03 09:15:25;;;;;;;5.22;1.23;;;24.40;38.70;;;;;;5024404;28;20021;-44
2021/12/03 09:23:08;;;;;;;2.80;1.20;;;24.40;38.70;;;;;;5031052;28;20028;-45
2021/12/03 09:25:37;;;;;;;3.60;1.48;;;24.40;38.80;;;;;;5027022;28;20053;-44
2021/12/03 09:28:07;;;;;;;3.08;1.10;;;24.40;38.80;;;;;;5029431;28;20039;-45
2021/12/03 09:30:39;;;;;;;3.08;1.15;;;24.40;38.70;;;;;;5023342;28;20041;-45
2021/12/03 09:33:08;;;;;;;3.47;1.43;;;24.40;38.40;;;;;;5023098;28;20099;-45
2021/12/03 09:35:38;;;;;;;2.72;1.02;;;24.40;38.10;;;;;;5023068;28;20017;-46
2021/12/03 09:38:04;;;;;;;3.10;1.20;;;24.40;38.10;;;;;;5024719;28;20025;-45
2021/12/03 09:40:31;;;;;;;2.22;0.80;;;24.40;38.10;;;;;;5022167;28;20048;-45
2021/12/03 09:42:57;;;;;;;2.22;1.02;;;24.40;38.10;;;;;;5026431;28;20137;-45
2021/12/03 09:45:23;;;;;;;2.35;1.10;;;24.40;38.10;;;;;;5023003;28;20032;-44
2021/12/03 09:47:51;;;;;;;4.60;1.33;;;24.40;38.10;;;;;;5026535;28;20033;-45
2021/12/03 09:50:17;;;;;;;3.30;1.10;;;24.40;38.00;;;;;;5029487;28;20068;-45
2021/12/03 09:55:14;;;;;;;2.17;0.93;;;24.40;38.00;;;;;;5020854;28;20545;-45
2021/12/03 10:00:35;;;;;;;3.72;1.10;;;24.40;37.90;;;;;;5021409;28;20116;-45
2021/12/03 10:19:29;;;;;;;2.97;1.00;;;24.30;37.80;;;;;;5022543;28;20821;-45
2021/12/03 10:33:03;;;;;;;2.33;0.93;;;24.30;37.90;;;;;;5026964;28;20018;-45
2021/12/03 10:38:42;;;;;;;2.72;1.00;;;24.30;37.90;;;;;;5031509;28;20519;-45
2021/12/03 10:41:12;;;;;;;3.28;1.27;;;24.30;37.90;;;;;;5024174;28;20157;-46
2021/12/03 10:46:44;;;;;;;3.08;1.20;;;24.20;37.90;;;;;;5019701;28;20075;-45
2021/12/03 11:30:33;;;;;;;8.30;3.75;;;24.10;38.90;;;;;;5023546;28;20462;-45
2021/12/03 14:38:21;;;;;;;3.85;1.33;;;24.60;41.20;;;;;;5023553;28;20014;-47
2021/12/03 14:41:07;;;;;;;3.08;1.35;;;24.60;40.80;;;;;;5029672;28;20070;-47
2021/12/03 14:44:02;;;;;;;1.92;1.08;;;24.60;40.60;;;;;;5023123;28;20790;-47
2021/12/03 14:46:58;;;;;;;2.85;1.13;;;24.60;40.20;;;;;;5023014;28;20041;-48
2021/12/03 14:57:28;;;;;;;3.05;1.42;;;24.50;39.30;;;;;;5023124;28;20018;-46
2021/12/03 15:00:25;;;;;;;2.92;1.20;;;24.50;39.10;;;;;;5020774;28;20025;-47
2021/12/03 15:03:04;;;;;;;2.80;1.40;;;24.50;38.90;;;;;;5022946;28;20079;-45
2021/12/03 15:08:18;;;;;;;3.38;1.30;;;24.40;38.60;;;;;;5023549;28;20092;-47
2021/12/03 15:14:01;;;;;;;;;;;;;;;;;;;;;
2021/12/03 15:34:43;;;;;;;2.45;1.05;;;24.20;38.20;;;;;;5024664;28;20028;-47
2021/12/03 16:04:56;;;;;;;2.13;0.82;;;23.90;38.00;;;;;;5020086;28;20033;-47
2021/12/03 16:12:31;;;;;;;1.70;0.70;;;23.80;37.90;;;;;;5021680;28;20032;-46
2021/12/03 16:17:47;;;;;;;1.92;0.70;;;23.80;37.90;;;;;;5025861;28;20369;-47
2021/12/03 16:44:10;;;;;;;2.03;0.90;;;23.70;38.00;;;;;;5025438;28;20550;-46
2021/12/03 16:51:57;;;;;;;2.13;0.80;;;23.70;38.00;;;;;;5022775;28;20577;-46
2021/12/03 16:54:38;;;;;;;1.42;0.73;;;23.70;38.10;;;;;;5025580;28;20032;-46
2021/12/03 16:57:07;;;;;;;1.52;0.70;;;23.70;38.10;;;;;;5025151;28;20121;-47
2021/12/03 16:59:33;;;;;;;2.00;0.80;;;23.70;38.10;;;;;;5024961;28;20029;-46
2021/12/03 17:02:08;;;;;;;1.67;0.65;;;23.70;38.10;;;;;;5024701;28;20030;-46
2021/12/03 17:49:48;;;;;;;2.15;0.93;;;23.50;38.20;;;;;;5023843;28;20521;-45
2021/12/03 18:00:05;;;;;;;2.15;0.68;;;23.50;38.40;;;;;;5022409;28;20036;-45
2021/12/03 18:16:31;;;;;;;2.40;1.10;;;23.50;40.40;;;;;;5024329;28;20601;-46
2021/12/03 18:56:44;;;;;;;5.38;2.55;;;23.80;40.50;;;;;;5001385;28;20121;-45
2021/12/03 18:59:11;;;;;;;4.63;2.00;;;23.90;40.40;;;;;;5017437;28;20028;-46
2021/12/03 19:01:37;;;;;;;4.20;2.20;;;23.80;40.30;;;;;;5020618;28;20057;-45
2021/12/03 19:06:59;;;;;;;4.85;2.15;;;23.80;40.40;;;;;;5025861;28;20036;-45
2021/12/03 19:09:33;;;;;;;5.53;2.47;;;23.80;41.00;;;;;;5026289;28;20021;-45
2021/12/03 19:12:10;;;;;;;5.95;2.80;;;23.80;40.20;;;;;;5025654;28;20047;-45
2021/12/03 19:14:48;;;;;;;5.57;2.88;;;23.80;40.20;;;;;;5022457;28;20033;-45
2021/12/03 19:17:14;;;;;;;6.20;3.00;;;23.80;40.30;;;;;;5023418;28;20026;-45
2021/12/03 19:19:44;;;;;;;6.25;2.92;;;23.80;40.40;;;;;;5021884;28;20047;-47
2021/12/03 19:22:11;;;;;;;6.32;3.60;;;23.80;40.20;;;;;;5024291;28;20540;-47
2021/12/03 19:24:37;;;;;;;8.73;3.58;;;23.80;40.30;;;;;;5024879;28;20064;-47
2021/12/03 19:27:03;;;;;;;7.32;4.05;;;23.80;40.20;;;;;;5025103;28;20021;-45
2021/12/03 19:29:33;;;;;;;5.75;3.63;;;23.80;40.00;;;;;;5025344;28;20619;-47
2021/12/03 19:31:59;;;;;;;5.90;3.53;;;23.80;39.80;;;;;;5024202;28;20118;-47
2021/12/03 19:34:25;;;;;;;8.65;3.72;;;23.80;39.70;;;;;;5024929;28;20642;-48
2021/12/03 19:36:52;;;;;;;7.18;4.03;;;23.80;39.50;;;;;;5024131;28;20468;-47
2021/12/03 19:39:19;;;;;;;6.82;3.90;;;23.80;39.40;;;;;;5022922;28;20429;-45
2021/12/03 19:42:00;;;;;;;6.13;3.53;;;23.80;39.40;;;;;;5024725;28;20082;-46
2021/12/03 19:44:37;;;;;;;6.53;3.63;;;23.80;39.20;;;;;;5024430;28;20538;-46
2021/12/03 19:47:05;;;;;;;8.68;4.65;;;23.80;39.20;;;;;;5024315;28;20607;-46
2021/12/03 19:49:36;;;;;;;6.40;3.53;;;23.70;39.10;;;;;;5024445;28;20070;-46
2021/12/03 19:54:46;;;;;;;5.75;3.50;;;23.70;39.10;;;;;;5026398;28;20574;-47
2021/12/03 19:57:12;;;;;;;8.02;4.22;;;23.70;39.00;;;;;;5025541;28;20029;-46
2021/12/03 19:59:38;;;;;;;10.60;3.95;;;23.70;38.90;;;;;;5026345;28;20040;-46
2021/12/03 20:02:04;;;;;;;5.07;3.20;;;23.70;38.90;;;;;;5026374;28;20272;-47
2021/12/03 20:04:30;;;;;;;5.90;3.70;;;23.70;38.90;;;;;;5025081;28;20048;-47
2021/12/03 20:06:56;;;;;;;6.03;3.92;;;23.60;38.90;;;;;;5025957;28;20060;-47
2021/12/03 20:09:27;;;;;;;14.80;13.43;;;23.60;39.30;;;;;;5023325;28;20056;-47
2021/12/03 20:11:57;;;;;;;37.72;34.78;;;23.60;39.60;;;;;;5023690;28;20023;-47
2021/12/03 20:14:23;;;;;;;48.80;45.30;;;23.70;40.00;;;;;;5024383;28;20744;-45
2021/12/03 20:19:40;;;;;;;38.50;35.65;;;23.70;42.10;;;;;;5024984;28;20010;-46
2021/12/03 20:22:14;;;;;;;39.10;36.10;;;23.70;45.70;;;;;;5023592;28;20072;-46
2021/12/03 20:27:14;;;;;;;32.35;29.90;;;23.80;44.20;;;;;;5021788;28;20071;-47
2021/12/03 20:29:50;;;;;;;28.80;26.60;;;23.80;43.80;;;;;;5028949;28;20511;-46
2021/12/03 20:32:25;;;;;;;25.75;23.65;;;23.80;43.20;;;;;;5022195;28;20036;-47
2021/12/03 20:37:39;;;;;;;19.63;17.92;;;23.80;42.60;;;;;;5030516;28;20104;-47
2021/12/03 20:40:10;;;;;;;17.60;16.10;;;23.80;42.10;;;;;;5024378;28;20532;-47
2021/12/03 20:42:56;;;;;;;16.15;14.75;;;23.80;41.80;;;;;;5019918;28;20037;-47
2021/12/03 21:09:16;;;;;;;9.88;8.95;;;23.70;40.70;;;;;;5025548;28;20769;-45
2021/12/03 21:11:44;;;;;;;10.00;9.00;;;23.60;40.50;;;;;;5022732;28;20029;-45
2021/12/03 21:14:16;;;;;;;8.80;7.90;;;23.60;40.40;;;;;;5024360;28;20021;-45
2021/12/03 21:19:53;;;;;;;7.75;6.95;;;23.60;40.20;;;;;;4992077;28;20104;-45
2021/12/03 21:22:22;;;;;;;8.88;7.95;;;23.60;40.20;;;;;;5020690;28;20057;-45